Terminal Aerodrome Forecast
Issued by NWS

Home | Current Version | Previous Version | Text Only | Print | Product List | Glossary On
Versions: 1 2 3 4 5 6 7 8 9 10 11 12 13
000
FTUS43 KDVN 062300
TAFCID
TAF
KCID 062329Z 0700/0724 23006KT P6SM SCT200
     FM070300 25005KT P6SM BKN100
     FM071500 29014G21KT P6SM SCT050=

USA.gov is the U.S. government's official web portal to all federal, state and local government web resources and services.